TimeCDT,TemperatureF,Dew PointF,Humidity,Sea Level PressureIn,VisibilityMPH,Wind Direction,Wind SpeedMPH,Gust SpeedMPH,PrecipitationIn,Events,Conditions,WindDirDegrees,DateUTC
12:15 AM,32.0,32.0,100,29.52,3.0,NW,8.1,-,0.01,Snow,Light Snow,320,2013-04-07 05:15:00
12:35 AM,32.0,32.0,100,29.53,5.0,NW,10.4,-,0.02,Snow,Light Snow,320,2013-04-07 05:35:00
12:55 AM,32.0,32.0,100,29.53,7.0,NW,10.4,-,0.03,,Overcast,320,2013-04-07 05:55:00
1:15 AM,32.0,32.0,100,29.54,4.0,NW,12.7,20.7,N/A,Snow,Light Snow,320,2013-04-07 06:15:00
1:55 AM,32.0,32.0,100,29.56,5.0,NW,10.4,18.4,N/A,Snow,Light Snow,320,2013-04-07 06:55:00
2:15 AM,32.0,32.0,100,29.57,7.0,NW,12.7,17.3,N/A,Snow,Light Snow,320,2013-04-07 07:15:00
2:35 AM,32.0,32.0,100,29.59,7.0,NW,12.7,16.1,N/A,Snow,Light Snow,320,2013-04-07 07:35:00
2:55 AM,32.0,30.2,93,29.59,10.0,NNW,16.1,21.9,N/A,,Overcast,330,2013-04-07 07:55:00
3:15 AM,32.0,30.2,93,29.60,10.0,NNW,18.4,23.0,N/A,,Overcast,330,2013-04-07 08:15:00
3:35 AM,32.0,30.2,93,29.62,7.0,NW,8.1,-,N/A,Snow,Light Snow,310,2013-04-07 08:35:00
3:55 AM,30.2,30.2,100,29.63,3.0,NNW,17.3,21.9,N/A,Snow,Light Snow,330,2013-04-07 08:55:00
4:15 AM,30.2,30.2,100,29.63,5.0,NW,10.4,-,N/A,Snow,Light Snow,320,2013-04-07 09:15:00
4:35 AM,30.2,30.2,100,29.65,5.0,NW,13.8,17.3,N/A,Snow,Light Snow,320,2013-04-07 09:35:00
4:55 AM,30.2,30.2,100,29.65,10.0,NW,13.8,21.9,N/A,,Overcast,320,2013-04-07 09:55:00
5:15 AM,30.2,30.2,100,29.67,10.0,NW,9.2,-,N/A,,Overcast,310,2013-04-07 10:15:00
5:35 AM,30.2,30.2,100,29.68,5.0,NW,10.4,19.6,N/A,,Overcast,310,2013-04-07 10:35:00
5:55 AM,30.2,30.2,100,29.69,2.5,NW,9.2,-,N/A,Snow,Light Snow,320,2013-04-07 10:55:00
6:15 AM,30.2,30.2,100,29.69,1.8,NNW,8.1,-,N/A,Snow,Light Snow,330,2013-04-07 11:15:00
6:55 AM,30.2,30.2,100,29.72,10.0,NNW,10.4,20.7,N/A,,Overcast,340,2013-04-07 11:55:00
7:15 AM,30.2,30.2,100,29.74,7.0,NNW,10.4,-,N/A,Snow,Light Snow,340,2013-04-07 12:15:00
7:35 AM,30.2,30.2,100,29.75,7.0,NNW,11.5,-,N/A,,Overcast,330,2013-04-07 12:35:00
7:55 AM,30.2,30.2,100,29.76,1.5,NNW,10.4,-,N/A,Snow,Light Snow,330,2013-04-07 12:55:00
8:15 AM,30.2,30.2,100,29.77,5.0,NNW,11.5,-,N/A,Snow,Light Snow,340,2013-04-07 13:15:00
8:35 AM,30.2,30.2,100,29.78,2.5,NNW,8.1,-,N/A,Snow,Light Snow,340,2013-04-07 13:35:00
8:55 AM,30.2,30.2,100,29.79,7.0,NNW,8.1,-,N/A,,Overcast,340,2013-04-07 13:55:00
9:15 AM,32.0,30.2,93,29.79,10.0,NNW,12.7,-,N/A,,Overcast,330,2013-04-07 14:15:00
9:35 AM,32.0,30.2,93,29.81,10.0,NW,6.9,-,N/A,,Overcast,320,2013-04-07 14:35:00
9:55 AM,32.0,30.2,93,29.82,7.0,NW,6.9,-,0.01,,Overcast,320,2013-04-07 14:55:00
10:15 AM,32.0,30.2,93,29.83,2.0,NW,8.1,-,0.01,Snow,Light Snow,320,2013-04-07 15:15:00
10:55 AM,32.0,28.4,87,29.86,10.0,NNW,9.2,-,0.01,,Overcast,330,2013-04-07 15:55:00
11:15 AM,32.0,28.4,87,29.87,10.0,NW,8.1,-,N/A,,Overcast,310,2013-04-07 16:15:00
11:35 AM,32.0,30.2,93,29.87,10.0,WNW,6.9,-,0.01,,Overcast,300,2013-04-07 16:35:00
11:55 AM,32.0,28.4,87,29.87,10.0,WNW,5.8,-,0.01,,Overcast,290,2013-04-07 16:55:00
12:15 PM,33.8,26.6,75,29.88,10.0,WNW,6.9,-,N/A,,Overcast,300,2013-04-07 17:15:00
12:35 PM,33.8,28.4,81,29.88,10.0,NNW,10.4,-,N/A,,Overcast,330,2013-04-07 17:35:00
12:55 PM,33.8,26.6,75,29.88,10.0,NNW,11.5,-,N/A,,Overcast,330,2013-04-07 17:55:00
1:15 PM,33.8,26.6,75,29.89,10.0,West,6.9,-,N/A,,Overcast,280,2013-04-07 18:15:00
1:35 PM,33.8,26.6,75,29.90,10.0,West,8.1,-,N/A,,Overcast,260,2013-04-07 18:35:00
1:55 PM,33.8,26.6,75,29.90,10.0,West,5.8,-,N/A,,Overcast,270,2013-04-07 18:55:00
2:15 PM,35.6,28.4,75,29.90,10.0,NW,6.9,-,N/A,,Overcast,320,2013-04-07 19:15:00
2:55 PM,35.6,28.4,75,29.90,10.0,West,4.6,-,N/A,,Overcast,280,2013-04-07 19:55:00
3:15 PM,35.6,28.4,75,29.90,10.0,NNW,3.5,-,N/A,,Overcast,330,2013-04-07 20:15:00
3:35 PM,35.6,28.4,75,29.90,10.0,SW,4.6,-,N/A,,Overcast,230,2013-04-07 20:35:00
3:55 PM,35.6,28.4,75,29.89,10.0,WSW,3.5,-,N/A,,Overcast,240,2013-04-07 20:55:00
4:15 PM,35.6,28.4,75,29.89,10.0,Calm,Calm,-,N/A,,Overcast,0,2013-04-07 21:15:00
4:35 PM,35.6,28.4,75,29.89,10.0,Calm,Calm,-,N/A,,Overcast,0,2013-04-07 21:35:00
4:55 PM,35.6,28.4,75,29.89,10.0,NE,3.5,-,N/A,,Mostly Cloudy,40,2013-04-07 21:55:00
5:15 PM,37.4,28.4,70,29.89,10.0,NE,3.5,-,N/A,,Clear,50,2013-04-07 22:15:00
5:55 PM,37.4,28.4,70,29.88,10.0,East,5.8,-,N/A,,Clear,80,2013-04-07 22:55:00
6:15 PM,37.4,28.4,70,29.88,10.0,East,4.6,-,N/A,,Clear,80,2013-04-07 23:15:00
6:35 PM,37.4,28.4,70,29.88,10.0,ENE,4.6,-,N/A,,Clear,70,2013-04-07 23:35:00
6:55 PM,37.4,28.4,70,29.88,10.0,East,4.6,-,N/A,,Clear,80,2013-04-07 23:55:00
7:15 PM,35.6,28.4,75,29.88,10.0,East,3.5,-,N/A,,Clear,100,2013-04-08 00:15:00
7:35 PM,35.6,28.4,75,29.88,10.0,Calm,Calm,-,N/A,,Clear,0,2013-04-08 00:35:00
7:55 PM,35.6,28.4,75,29.89,10.0,Calm,Calm,-,N/A,,Clear,0,2013-04-08 00:55:00
8:15 PM,32.0,26.6,80,29.91,10.0,Calm,Calm,-,N/A,,Clear,0,2013-04-08 01:15:00
8:35 PM,32.0,28.4,87,29.90,10.0,East,3.5,-,N/A,,Clear,100,2013-04-08 01:35:00
8:55 PM,32.0,28.4,87,29.89,10.0,ESE,4.6,-,N/A,,Clear,110,2013-04-08 01:55:00
9:15 PM,33.8,28.4,81,29.90,10.0,ESE,4.6,-,N/A,,Clear,120,2013-04-08 02:15:00
9:35 PM,32.0,28.4,87,29.89,10.0,ESE,5.8,-,N/A,,Clear,120,2013-04-08 02:35:00
9:55 PM,32.0,28.4,87,29.89,10.0,ESE,6.9,-,N/A,,Clear,120,2013-04-08 02:55:00
10:15 PM,32.0,28.4,87,29.88,10.0,ESE,5.8,-,N/A,,Clear,120,2013-04-08 03:15:00
10:55 PM,32.0,28.4,87,29.87,10.0,SE,5.8,-,N/A,,Clear,130,2013-04-08 03:55:00
11:15 PM,32.0,28.4,87,29.86,10.0,SE,4.6,-,N/A,,Clear,130,2013-04-08 04:15:00
11:35 PM,32.0,28.4,87,29.86,10.0,SE,4.6,-,N/A,,Clear,140,2013-04-08 04:35:00
11:55 PM,32.0,28.4,87,29.86,10.0,SE,4.6,-,N/A,,Clear,140,2013-04-08 04:55:00